sensor_id;sensor_type;location;lat;lon;timestamp;P1;durP1;ratioP1;P2;durP2;ratioP2
37895;SDS011;23733;53.254;10.430;2022-08-21T00:02:25;4.43;;;2.23;;
37895;SDS011;23733;53.254;10.430;2022-08-21T00:04:52;4.87;;;2.10;;
37895;SDS011;23733;53.254;10.430;2022-08-21T00:07:19;4.10;;;2.00;;
37895;SDS011;23733;53.254;10.430;2022-08-21T00:09:46;7.30;;;2.30;;
37895;SDS011;23733;53.254;10.430;2022-08-21T00:12:12;4.50;;;2.10;;
37895;SDS011;23733;53.254;10.430;2022-08-21T00:14:39;3.53;;;2.10;;
37895;SDS011;23733;53.254;10.430;2022-08-21T00:17:05;8.13;;;2.30;;
37895;SDS011;23733;53.254;10.430;2022-08-21T00:19:32;3.80;;;2.20;;
37895;SDS011;23733;53.254;10.430;2022-08-21T00:21:58;5.83;;;2.00;;
37895;SDS011;23733;53.254;10.430;2022-08-21T00:24:25;4.97;;;2.20;;
37895;SDS011;23733;53.254;10.430;2022-08-21T00:26:51;5.30;;;2.13;;
37895;SDS011;23733;53.254;10.430;2022-08-21T00:29:18;5.37;;;2.60;;
37895;SDS011;23733;53.254;10.430;2022-08-21T00:31:45;4.77;;;2.30;;
37895;SDS011;23733;53.254;10.430;2022-08-21T00:34:11;5.10;;;2.10;;
37895;SDS011;23733;53.254;10.430;2022-08-21T00:36:38;4.73;;;2.47;;
37895;SDS011;23733;53.254;10.430;2022-08-21T00:39:05;4.57;;;2.27;;
37895;SDS011;23733;53.254;10.430;2022-08-21T00:41:33;6.67;;;2.00;;
37895;SDS011;23733;53.254;10.430;2022-08-21T00:44:00;6.10;;;2.43;;
37895;SDS011;23733;53.254;10.430;2022-08-21T00:46:27;5.80;;;1.93;;
37895;SDS011;23733;53.254;10.430;2022-08-21T00:48:53;5.83;;;2.37;;
37895;SDS011;23733;53.254;10.430;2022-08-21T00:51:20;5.83;;;2.03;;
37895;SDS011;23733;53.254;10.430;2022-08-21T00:53:54;3.47;;;2.10;;
37895;SDS011;23733;53.254;10.430;2022-08-21T00:56:22;4.50;;;2.23;;
37895;SDS011;23733;53.254;10.430;2022-08-21T00:58:49;2.77;;;2.00;;
37895;SDS011;23733;53.254;10.430;2022-08-21T01:01:17;5.47;;;2.30;;
37895;SDS011;23733;53.254;10.430;2022-08-21T01:03:43;5.57;;;2.13;;
37895;SDS011;23733;53.254;10.430;2022-08-21T01:06:10;3.50;;;1.97;;
37895;SDS011;23733;53.254;10.430;2022-08-21T01:08:36;2.43;;;1.90;;
37895;SDS011;23733;53.254;10.430;2022-08-21T01:11:02;3.33;;;1.73;;
37895;SDS011;23733;53.254;10.430;2022-08-21T01:13:29;4.07;;;1.90;;
37895;SDS011;23733;53.254;10.430;2022-08-21T01:15:59;3.33;;;2.00;;
37895;SDS011;23733;53.254;10.430;2022-08-21T01:18:28;2.57;;;1.70;;
37895;SDS011;23733;53.254;10.430;2022-08-21T01:21:02;3.50;;;2.13;;
37895;SDS011;23733;53.254;10.430;2022-08-21T01:23:32;4.30;;;2.00;;
37895;SDS011;23733;53.254;10.430;2022-08-21T01:26:00;3.23;;;1.90;;
37895;SDS011;23733;53.254;10.430;2022-08-21T01:28:26;3.97;;;2.00;;
37895;SDS011;23733;53.254;10.430;2022-08-21T01:30:56;3.93;;;2.17;;
37895;SDS011;23733;53.254;10.430;2022-08-21T01:33:24;2.70;;;2.00;;
37895;SDS011;23733;53.254;10.430;2022-08-21T01:35:50;5.23;;;2.20;;
37895;SDS011;23733;53.254;10.430;2022-08-21T01:38:16;4.57;;;1.80;;
37895;SDS011;23733;53.254;10.430;2022-08-21T01:40:43;4.97;;;2.00;;
37895;SDS011;23733;53.254;10.430;2022-08-21T01:43:09;4.80;;;2.17;;
37895;SDS011;23733;53.254;10.430;2022-08-21T01:45:35;4.80;;;2.10;;
37895;SDS011;23733;53.254;10.430;2022-08-21T01:48:01;2.97;;;1.93;;
37895;SDS011;23733;53.254;10.430;2022-08-21T01:50:28;4.33;;;2.40;;
37895;SDS011;23733;53.254;10.430;2022-08-21T01:52:54;6.10;;;2.03;;
37895;SDS011;23733;53.254;10.430;2022-08-21T01:55:20;5.23;;;2.10;;
37895;SDS011;23733;53.254;10.430;2022-08-21T01:57:47;3.30;;;1.93;;
37895;SDS011;23733;53.254;10.430;2022-08-21T02:00:15;3.33;;;1.87;;
37895;SDS011;23733;53.254;10.430;2022-08-21T02:02:44;5.37;;;2.27;;
37895;SDS011;23733;53.254;10.430;2022-08-21T02:05:10;4.07;;;1.97;;
37895;SDS011;23733;53.254;10.430;2022-08-21T02:07:45;2.93;;;1.90;;
37895;SDS011;23733;53.254;10.430;2022-08-21T02:10:15;3.47;;;1.90;;
37895;SDS011;23733;53.254;10.430;2022-08-21T02:12:43;3.63;;;2.03;;
37895;SDS011;23733;53.254;10.430;2022-08-21T02:15:09;6.03;;;2.30;;
37895;SDS011;23733;53.254;10.430;2022-08-21T02:17:37;4.00;;;1.93;;
37895;SDS011;23733;53.254;10.430;2022-08-21T02:20:05;3.17;;;1.93;;
37895;SDS011;23733;53.254;10.430;2022-08-21T02:22:31;2.87;;;1.90;;
37895;SDS011;23733;53.254;10.430;2022-08-21T02:24:57;3.67;;;2.30;;
37895;SDS011;23733;53.254;10.430;2022-08-21T02:27:24;4.27;;;1.73;;
37895;SDS011;23733;53.254;10.430;2022-08-21T02:29:50;3.57;;;2.00;;
37895;SDS011;23733;53.254;10.430;2022-08-21T02:32:21;3.93;;;2.00;;
37895;SDS011;23733;53.254;10.430;2022-08-21T02:34:47;4.73;;;2.20;;
37895;SDS011;23733;53.254;10.430;2022-08-21T02:37:14;8.57;;;2.23;;
37895;SDS011;23733;53.254;10.430;2022-08-21T02:39:40;3.77;;;2.00;;
37895;SDS011;23733;53.254;10.430;2022-08-21T02:42:09;4.30;;;1.97;;
37895;SDS011;23733;53.254;10.430;2022-08-21T02:44:35;6.60;;;2.00;;
37895;SDS011;23733;53.254;10.430;2022-08-21T02:47:01;2.40;;;1.87;;
37895;SDS011;23733;53.254;10.430;2022-08-21T02:49:27;5.10;;;2.07;;
37895;SDS011;23733;53.254;10.430;2022-08-21T02:51:53;4.13;;;2.20;;
37895;SDS011;23733;53.254;10.430;2022-08-21T02:54:19;4.83;;;2.20;;
37895;SDS011;23733;53.254;10.430;2022-08-21T02:56:45;5.47;;;2.20;;
37895;SDS011;23733;53.254;10.430;2022-08-21T02:59:11;4.60;;;2.10;;
37895;SDS011;23733;53.254;10.430;2022-08-21T03:01:37;4.50;;;2.10;;
37895;SDS011;23733;53.254;10.430;2022-08-21T03:04:03;3.83;;;1.90;;
37895;SDS011;23733;53.254;10.430;2022-08-21T03:06:29;5.20;;;2.20;;
37895;SDS011;23733;53.254;10.430;2022-08-21T03:08:55;3.57;;;1.90;;
37895;SDS011;23733;53.254;10.430;2022-08-21T03:11:23;4.50;;;2.37;;
37895;SDS011;23733;53.254;10.430;2022-08-21T03:13:49;3.20;;;1.90;;
37895;SDS011;23733;53.254;10.430;2022-08-21T03:16:15;3.53;;;2.23;;
37895;SDS011;23733;53.254;10.430;2022-08-21T03:18:41;3.53;;;2.00;;
37895;SDS011;23733;53.254;10.430;2022-08-21T03:21:07;4.63;;;2.20;;
37895;SDS011;23733;53.254;10.430;2022-08-21T03:23:33;6.03;;;2.50;;
37895;SDS011;23733;53.254;10.430;2022-08-21T03:25:59;6.73;;;2.27;;
37895;SDS011;23733;53.254;10.430;2022-08-21T03:28:25;5.53;;;2.27;;
37895;SDS011;23733;53.254;10.430;2022-08-21T03:30:52;6.93;;;2.40;;
37895;SDS011;23733;53.254;10.430;2022-08-21T03:33:18;4.27;;;2.30;;
37895;SDS011;23733;53.254;10.430;2022-08-21T03:35:47;4.87;;;2.13;;
37895;SDS011;23733;53.254;10.430;2022-08-21T03:38:16;3.87;;;2.17;;
37895;SDS011;23733;53.254;10.430;2022-08-21T03:40:42;4.83;;;2.00;;
37895;SDS011;23733;53.254;10.430;2022-08-21T03:43:09;4.33;;;2.13;;
37895;SDS011;23733;53.254;10.430;2022-08-21T03:45:35;5.20;;;2.47;;
37895;SDS011;23733;53.254;10.430;2022-08-21T03:48:04;6.00;;;2.37;;
37895;SDS011;23733;53.254;10.430;2022-08-21T03:50:32;4.30;;;2.20;;
37895;SDS011;23733;53.254;10.430;2022-08-21T03:53:01;5.47;;;2.17;;
37895;SDS011;23733;53.254;10.430;2022-08-21T03:55:27;5.97;;;2.60;;
37895;SDS011;23733;53.254;10.430;2022-08-21T03:57:53;4.27;;;2.20;;
37895;SDS011;23733;53.254;10.430;2022-08-21T04:00:19;5.33;;;2.47;;
37895;SDS011;23733;53.254;10.430;2022-08-21T04:02:46;4.60;;;2.50;;
37895;SDS011;23733;53.254;10.430;2022-08-21T04:05:13;3.58;;;2.20;;
37895;SDS011;23733;53.254;10.430;2022-08-21T04:07:53;4.63;;;2.37;;
37895;SDS011;23733;53.254;10.430;2022-08-21T04:10:20;4.47;;;2.10;;
37895;SDS011;23733;53.254;10.430;2022-08-21T04:12:46;5.70;;;2.30;;
37895;SDS011;23733;53.254;10.430;2022-08-21T04:15:12;3.93;;;2.10;;
37895;SDS011;23733;53.254;10.430;2022-08-21T04:17:38;4.80;;;2.30;;
37895;SDS011;23733;53.254;10.430;2022-08-21T04:20:04;5.50;;;2.40;;
37895;SDS011;23733;53.254;10.430;2022-08-21T04:22:31;2.43;;;2.03;;
37895;SDS011;23733;53.254;10.430;2022-08-21T04:24:57;4.37;;;2.10;;
37895;SDS011;23733;53.254;10.430;2022-08-21T04:27:23;4.17;;;2.37;;
37895;SDS011;23733;53.254;10.430;2022-08-21T04:29:49;2.87;;;1.87;;
37895;SDS011;23733;53.254;10.430;2022-08-21T04:32:21;4.57;;;2.07;;
37895;SDS011;23733;53.254;10.430;2022-08-21T04:34:48;4.50;;;2.23;;
37895;SDS011;23733;53.254;10.430;2022-08-21T04:37:14;4.03;;;2.20;;
37895;SDS011;23733;53.254;10.430;2022-08-21T04:39:41;4.13;;;1.90;;
37895;SDS011;23733;53.254;10.430;2022-08-21T04:42:07;4.80;;;2.30;;
37895;SDS011;23733;53.254;10.430;2022-08-21T04:44:34;4.47;;;2.17;;
37895;SDS011;23733;53.254;10.430;2022-08-21T04:47:00;3.30;;;2.00;;
37895;SDS011;23733;53.254;10.430;2022-08-21T04:49:26;6.60;;;2.57;;
37895;SDS011;23733;53.254;10.430;2022-08-21T04:51:52;3.67;;;1.97;;
37895;SDS011;23733;53.254;10.430;2022-08-21T04:54:19;3.17;;;2.00;;
37895;SDS011;23733;53.254;10.430;2022-08-21T04:56:48;2.87;;;1.87;;
37895;SDS011;23733;53.254;10.430;2022-08-21T04:59:23;3.83;;;1.93;;
37895;SDS011;23733;53.254;10.430;2022-08-21T05:01:53;6.47;;;2.10;;
37895;SDS011;23733;53.254;10.430;2022-08-21T05:04:24;3.77;;;2.20;;
37895;SDS011;23733;53.254;10.430;2022-08-21T05:06:52;2.40;;;1.93;;
37895;SDS011;23733;53.254;10.430;2022-08-21T05:09:21;3.87;;;2.10;;
37895;SDS011;23733;53.254;10.430;2022-08-21T05:11:48;5.60;;;2.40;;
37895;SDS011;23733;53.254;10.430;2022-08-21T05:14:16;3.33;;;1.87;;
37895;SDS011;23733;53.254;10.430;2022-08-21T05:16:43;2.80;;;1.80;;
37895;SDS011;23733;53.254;10.430;2022-08-21T05:19:09;5.00;;;2.50;;
37895;SDS011;23733;53.254;10.430;2022-08-21T05:21:37;4.97;;;2.03;;
37895;SDS011;23733;53.254;10.430;2022-08-21T05:24:04;4.37;;;1.90;;
37895;SDS011;23733;53.254;10.430;2022-08-21T05:26:31;4.03;;;2.00;;
37895;SDS011;23733;53.254;10.430;2022-08-21T05:28:57;3.87;;;2.00;;
37895;SDS011;23733;53.254;10.430;2022-08-21T05:31:23;6.40;;;2.30;;
37895;SDS011;23733;53.254;10.430;2022-08-21T05:33:49;7.20;;;2.43;;
37895;SDS011;23733;53.254;10.430;2022-08-21T05:36:16;4.23;;;2.00;;
37895;SDS011;23733;53.254;10.430;2022-08-21T05:38:43;3.97;;;2.30;;
37895;SDS011;23733;53.254;10.430;2022-08-21T05:41:32;4.70;;;2.17;;
37895;SDS011;23733;53.254;10.430;2022-08-21T05:43:58;4.90;;;1.97;;
37895;SDS011;23733;53.254;10.430;2022-08-21T05:46:24;5.07;;;2.20;;
37895;SDS011;23733;53.254;10.430;2022-08-21T05:48:50;6.13;;;2.10;;
37895;SDS011;23733;53.254;10.430;2022-08-21T05:51:16;4.20;;;2.17;;
37895;SDS011;23733;53.254;10.430;2022-08-21T05:53:43;5.00;;;2.23;;
37895;SDS011;23733;53.254;10.430;2022-08-21T05:56:10;4.87;;;2.17;;
37895;SDS011;23733;53.254;10.430;2022-08-21T05:58:37;3.17;;;1.87;;
37895;SDS011;23733;53.254;10.430;2022-08-21T06:01:04;5.97;;;2.07;;
37895;SDS011;23733;53.254;10.430;2022-08-21T06:03:31;4.67;;;2.13;;
37895;SDS011;23733;53.254;10.430;2022-08-21T06:06:00;3.33;;;1.87;;
37895;SDS011;23733;53.254;10.430;2022-08-21T06:08:26;5.23;;;2.00;;
37895;SDS011;23733;53.254;10.430;2022-08-21T06:10:54;4.73;;;1.90;;
37895;SDS011;23733;53.254;10.430;2022-08-21T06:13:21;4.30;;;1.93;;
37895;SDS011;23733;53.254;10.430;2022-08-21T06:15:48;4.37;;;2.13;;
37895;SDS011;23733;53.254;10.430;2022-08-21T06:18:16;5.03;;;2.33;;
37895;SDS011;23733;53.254;10.430;2022-08-21T06:20:42;5.13;;;1.90;;
37895;SDS011;23733;53.254;10.430;2022-08-21T06:23:08;2.77;;;1.90;;
37895;SDS011;23733;53.254;10.430;2022-08-21T06:25:34;8.30;;;1.90;;
37895;SDS011;23733;53.254;10.430;2022-08-21T06:28:04;5.37;;;1.93;;
37895;SDS011;23733;53.254;10.430;2022-08-21T06:30:32;3.83;;;1.83;;
37895;SDS011;23733;53.254;10.430;2022-08-21T06:33:00;6.83;;;2.03;;
37895;SDS011;23733;53.254;10.430;2022-08-21T06:35:26;3.20;;;2.00;;
37895;SDS011;23733;53.254;10.430;2022-08-21T06:37:54;5.70;;;2.03;;
37895;SDS011;23733;53.254;10.430;2022-08-21T06:40:21;6.10;;;1.90;;
37895;SDS011;23733;53.254;10.430;2022-08-21T06:42:47;4.53;;;2.10;;
37895;SDS011;23733;53.254;10.430;2022-08-21T06:45:14;5.67;;;2.30;;
37895;SDS011;23733;53.254;10.430;2022-08-21T06:47:40;3.20;;;1.90;;
37895;SDS011;23733;53.254;10.430;2022-08-21T06:50:07;5.00;;;1.57;;
37895;SDS011;23733;53.254;10.430;2022-08-21T06:52:34;5.27;;;2.40;;
37895;SDS011;23733;53.254;10.430;2022-08-21T06:55:01;3.23;;;1.80;;
37895;SDS011;23733;53.254;10.430;2022-08-21T06:57:29;5.57;;;2.03;;
37895;SDS011;23733;53.254;10.430;2022-08-21T06:59:55;5.40;;;1.90;;
37895;SDS011;23733;53.254;10.430;2022-08-21T07:02:21;4.70;;;1.70;;
37895;SDS011;23733;53.254;10.430;2022-08-21T07:04:47;4.63;;;1.90;;
37895;SDS011;23733;53.254;10.430;2022-08-21T07:07:13;3.80;;;1.73;;
37895;SDS011;23733;53.254;10.430;2022-08-21T07:09:39;3.80;;;1.80;;
37895;SDS011;23733;53.254;10.430;2022-08-21T07:12:05;3.20;;;1.90;;
37895;SDS011;23733;53.254;10.430;2022-08-21T07:14:31;4.40;;;2.00;;
37895;SDS011;23733;53.254;10.430;2022-08-21T07:16:57;4.57;;;1.80;;
37895;SDS011;23733;53.254;10.430;2022-08-21T07:19:23;5.07;;;2.00;;
37895;SDS011;23733;53.254;10.430;2022-08-21T07:21:49;6.47;;;1.67;;
37895;SDS011;23733;53.254;10.430;2022-08-21T07:24:16;5.13;;;1.83;;
37895;SDS011;23733;53.254;10.430;2022-08-21T07:26:42;3.30;;;1.60;;
37895;SDS011;23733;53.254;10.430;2022-08-21T07:29:08;4.23;;;1.67;;
37895;SDS011;23733;53.254;10.430;2022-08-21T07:31:34;2.67;;;1.57;;
37895;SDS011;23733;53.254;10.430;2022-08-21T07:34:00;4.00;;;1.60;;
37895;SDS011;23733;53.254;10.430;2022-08-21T07:36:26;5.90;;;1.80;;
37895;SDS011;23733;53.254;10.430;2022-08-21T07:38:52;3.73;;;1.80;;
37895;SDS011;23733;53.254;10.430;2022-08-21T07:41:19;5.47;;;1.80;;
37895;SDS011;23733;53.254;10.430;2022-08-21T07:43:48;3.93;;;1.83;;
37895;SDS011;23733;53.254;10.430;2022-08-21T07:46:14;4.00;;;1.90;;
37895;SDS011;23733;53.254;10.430;2022-08-21T07:48:40;3.07;;;1.43;;
37895;SDS011;23733;53.254;10.430;2022-08-21T07:51:08;3.83;;;1.70;;
37895;SDS011;23733;53.254;10.430;2022-08-21T07:53:36;5.80;;;2.00;;
37895;SDS011;23733;53.254;10.430;2022-08-21T07:56:03;3.63;;;1.60;;
37895;SDS011;23733;53.254;10.430;2022-08-21T07:58:31;2.97;;;1.47;;
37895;SDS011;23733;53.254;10.430;2022-08-21T08:00:57;4.23;;;1.80;;
37895;SDS011;23733;53.254;10.430;2022-08-21T08:03:23;3.33;;;1.50;;
37895;SDS011;23733;53.254;10.430;2022-08-21T08:05:49;3.73;;;1.60;;
37895;SDS011;23733;53.254;10.430;2022-08-21T08:08:15;3.73;;;1.53;;
37895;SDS011;23733;53.254;10.430;2022-08-21T08:10:42;4.07;;;1.70;;
37895;SDS011;23733;53.254;10.430;2022-08-21T08:13:09;3.00;;;1.80;;
37895;SDS011;23733;53.254;10.430;2022-08-21T08:15:35;4.23;;;1.60;;
37895;SDS011;23733;53.254;10.430;2022-08-21T08:18:01;6.33;;;1.87;;
37895;SDS011;23733;53.254;10.430;2022-08-21T08:20:28;5.60;;;1.60;;
37895;SDS011;23733;53.254;10.430;2022-08-21T08:22:54;4.47;;;1.77;;
37895;SDS011;23733;53.254;10.430;2022-08-21T08:25:21;7.30;;;2.30;;
37895;SDS011;23733;53.254;10.430;2022-08-21T08:27:48;3.37;;;1.70;;
37895;SDS011;23733;53.254;10.430;2022-08-21T08:30:15;7.10;;;2.00;;
37895;SDS011;23733;53.254;10.430;2022-08-21T08:32:43;11.23;;;2.40;;
37895;SDS011;23733;53.254;10.430;2022-08-21T08:35:12;6.33;;;2.30;;
37895;SDS011;23733;53.254;10.430;2022-08-21T08:37:39;4.60;;;1.90;;
37895;SDS011;23733;53.254;10.430;2022-08-21T08:40:30;4.43;;;1.67;;
37895;SDS011;23733;53.254;10.430;2022-08-21T08:43:19;3.70;;;1.90;;
37895;SDS011;23733;53.254;10.430;2022-08-21T08:45:50;4.40;;;2.00;;
37895;SDS011;23733;53.254;10.430;2022-08-21T08:48:26;10.90;;;2.43;;
37895;SDS011;23733;53.254;10.430;2022-08-21T08:51:07;5.40;;;1.90;;
37895;SDS011;23733;53.254;10.430;2022-08-21T08:53:47;5.73;;;1.70;;
37895;SDS011;23733;53.254;10.430;2022-08-21T08:56:23;5.97;;;1.87;;
37895;SDS011;23733;53.254;10.430;2022-08-21T08:58:55;5.30;;;1.90;;
37895;SDS011;23733;53.254;10.430;2022-08-21T09:01:25;6.70;;;2.10;;
37895;SDS011;23733;53.254;10.430;2022-08-21T09:03:51;5.40;;;1.80;;
37895;SDS011;23733;53.254;10.430;2022-08-21T09:08:54;4.10;;;1.70;;
37895;SDS011;23733;53.254;10.430;2022-08-21T09:14:05;3.43;;;1.70;;
37895;SDS011;23733;53.254;10.430;2022-08-21T09:19:47;6.87;;;2.10;;
37895;SDS011;23733;53.254;10.430;2022-08-21T09:22:38;5.50;;;1.77;;
37895;SDS011;23733;53.254;10.430;2022-08-21T09:27:48;3.60;;;1.53;;
37895;SDS011;23733;53.254;10.430;2022-08-21T09:30:16;6.70;;;2.43;;
37895;SDS011;23733;53.254;10.430;2022-08-21T09:32:43;3.13;;;1.63;;
37895;SDS011;23733;53.254;10.430;2022-08-21T09:38:22;4.77;;;1.90;;
37895;SDS011;23733;53.254;10.430;2022-08-21T09:40:35;2.83;;;1.50;;
37895;SDS011;23733;53.254;10.430;2022-08-21T09:43:20;4.87;;;1.90;;
37895;SDS011;23733;53.254;10.430;2022-08-21T09:46:02;4.67;;;1.77;;
37895;SDS011;23733;53.254;10.430;2022-08-21T09:48:47;4.90;;;1.90;;
37895;SDS011;23733;53.254;10.430;2022-08-21T09:51:17;5.37;;;1.87;;
37895;SDS011;23733;53.254;10.430;2022-08-21T09:53:49;5.70;;;1.97;;
37895;SDS011;23733;53.254;10.430;2022-08-21T09:56:20;5.37;;;1.73;;
37895;SDS011;23733;53.254;10.430;2022-08-21T09:59:26;5.20;;;2.00;;
37895;SDS011;23733;53.254;10.430;2022-08-21T10:01:58;4.80;;;1.80;;
37895;SDS011;23733;53.254;10.430;2022-08-21T10:04:31;5.10;;;1.90;;
37895;SDS011;23733;53.254;10.430;2022-08-21T10:07:05;7.30;;;2.10;;
37895;SDS011;23733;53.254;10.430;2022-08-21T10:09:36;4.73;;;1.80;;
37895;SDS011;23733;53.254;10.430;2022-08-21T10:14:42;6.80;;;1.80;;
37895;SDS011;23733;53.254;10.430;2022-08-21T10:17:27;7.33;;;1.93;;
37895;SDS011;23733;53.254;10.430;2022-08-21T10:28:57;20.83;;;2.63;;
37895;SDS011;23733;53.254;10.430;2022-08-21T10:31:53;7.13;;;2.47;;
37895;SDS011;23733;53.254;10.430;2022-08-21T10:34:36;6.70;;;2.33;;
37895;SDS011;23733;53.254;10.430;2022-08-21T10:37:45;5.97;;;2.20;;
37895;SDS011;23733;53.254;10.430;2022-08-21T10:40:29;4.23;;;2.03;;
37895;SDS011;23733;53.254;10.430;2022-08-21T10:43:59;5.70;;;2.30;;
37895;SDS011;23733;53.254;10.430;2022-08-21T10:46:40;8.97;;;2.10;;
37895;SDS011;23733;53.254;10.430;2022-08-21T10:52:02;8.37;;;2.20;;
37895;SDS011;23733;53.254;10.430;2022-08-21T10:54:57;4.83;;;2.40;;
37895;SDS011;23733;53.254;10.430;2022-08-21T11:00:07;6.47;;;2.00;;
37895;SDS011;23733;53.254;10.430;2022-08-21T11:05:15;5.50;;;2.00;;
37895;SDS011;23733;53.254;10.430;2022-08-21T11:08:14;7.00;;;1.73;;
37895;SDS011;23733;53.254;10.430;2022-08-21T11:10:45;6.17;;;2.10;;
37895;SDS011;23733;53.254;10.430;2022-08-21T11:16:12;4.87;;;1.90;;
37895;SDS011;23733;53.254;10.430;2022-08-21T11:19:17;4.03;;;1.50;;
37895;SDS011;23733;53.254;10.430;2022-08-21T11:22:13;5.40;;;1.83;;
37895;SDS011;23733;53.254;10.430;2022-08-21T11:24:59;6.40;;;1.93;;
37895;SDS011;23733;53.254;10.430;2022-08-21T11:27:45;4.50;;;2.00;;
37895;SDS011;23733;53.254;10.430;2022-08-21T11:30:32;4.90;;;1.90;;
37895;SDS011;23733;53.254;10.430;2022-08-21T11:36:02;3.23;;;1.70;;
37895;SDS011;23733;53.254;10.430;2022-08-21T11:38:54;4.50;;;1.97;;
37895;SDS011;23733;53.254;10.430;2022-08-21T11:41:40;6.50;;;1.57;;
37895;SDS011;23733;53.254;10.430;2022-08-21T11:47:15;4.57;;;1.63;;
37895;SDS011;23733;53.254;10.430;2022-08-21T11:49:55;5.03;;;1.70;;
37895;SDS011;23733;53.254;10.430;2022-08-21T11:52:43;6.20;;;1.43;;
37895;SDS011;23733;53.254;10.430;2022-08-21T11:55:18;3.50;;;1.60;;
37895;SDS011;23733;53.254;10.430;2022-08-21T11:57:55;5.03;;;1.80;;
37895;SDS011;23733;53.254;10.430;2022-08-21T12:00:31;4.80;;;1.90;;
37895;SDS011;23733;53.254;10.430;2022-08-21T12:05:53;5.77;;;1.70;;
37895;SDS011;23733;53.254;10.430;2022-08-21T12:08:27;7.27;;;1.70;;
37895;SDS011;23733;53.254;10.430;2022-08-21T12:11:06;2.90;;;1.65;;
37895;SDS011;23733;53.254;10.430;2022-08-21T12:13:37;3.47;;;1.40;;
37895;SDS011;23733;53.254;10.430;2022-08-21T12:16:10;3.47;;;1.40;;
37895;SDS011;23733;53.254;10.430;2022-08-21T12:18:38;3.17;;;1.60;;
37895;SDS011;23733;53.254;10.430;2022-08-21T12:21:22;4.63;;;1.70;;
37895;SDS011;23733;53.254;10.430;2022-08-21T12:23:59;4.27;;;1.90;;
37895;SDS011;23733;53.254;10.430;2022-08-21T12:26:29;3.13;;;1.40;;
37895;SDS011;23733;53.254;10.430;2022-08-21T12:29:04;3.97;;;1.40;;
37895;SDS011;23733;53.254;10.430;2022-08-21T12:31:35;1.40;;;1.10;;
37895;SDS011;23733;53.254;10.430;2022-08-21T12:34:12;5.17;;;1.93;;
37895;SDS011;23733;53.254;10.430;2022-08-21T12:36:44;7.33;;;1.20;;
37895;SDS011;23733;53.254;10.430;2022-08-21T12:39:16;4.13;;;1.40;;
37895;SDS011;23733;53.254;10.430;2022-08-21T12:41:49;3.00;;;1.30;;
37895;SDS011;23733;53.254;10.430;2022-08-21T12:44:22;3.07;;;1.43;;
37895;SDS011;23733;53.254;10.430;2022-08-21T12:47:04;4.27;;;1.47;;
37895;SDS011;23733;53.254;10.430;2022-08-21T12:50:12;3.13;;;1.40;;
37895;SDS011;23733;53.254;10.430;2022-08-21T12:55:35;4.57;;;1.53;;
37895;SDS011;23733;53.254;10.430;2022-08-21T12:58:15;3.37;;;1.43;;
37895;SDS011;23733;53.254;10.430;2022-08-21T13:00:47;3.40;;;1.30;;
37895;SDS011;23733;53.254;10.430;2022-08-21T13:03:16;3.07;;;1.50;;
37895;SDS011;23733;53.254;10.430;2022-08-21T13:05:42;5.03;;;1.40;;
37895;SDS011;23733;53.254;10.430;2022-08-21T13:08:09;4.63;;;1.67;;
37895;SDS011;23733;53.254;10.430;2022-08-21T13:10:37;4.67;;;2.00;;
37895;SDS011;23733;53.254;10.430;2022-08-21T13:13:06;3.47;;;1.60;;
37895;SDS011;23733;53.254;10.430;2022-08-21T13:15:38;4.63;;;1.63;;
37895;SDS011;23733;53.254;10.430;2022-08-21T13:18:06;2.20;;;1.30;;
37895;SDS011;23733;53.254;10.430;2022-08-21T13:20:33;3.40;;;1.20;;
37895;SDS011;23733;53.254;10.430;2022-08-21T13:23:03;3.63;;;1.60;;
37895;SDS011;23733;53.254;10.430;2022-08-21T13:25:36;3.50;;;1.20;;
37895;SDS011;23733;53.254;10.430;2022-08-21T13:28:10;3.53;;;1.30;;
37895;SDS011;23733;53.254;10.430;2022-08-21T13:30:42;3.03;;;1.30;;
37895;SDS011;23733;53.254;10.430;2022-08-21T13:33:13;1.93;;;1.10;;
37895;SDS011;23733;53.254;10.430;2022-08-21T13:35:47;3.90;;;1.40;;
37895;SDS011;23733;53.254;10.430;2022-08-21T13:38:17;1.67;;;1.00;;
37895;SDS011;23733;53.254;10.430;2022-08-21T13:40:58;2.47;;;1.40;;
37895;SDS011;23733;53.254;10.430;2022-08-21T13:43:34;5.10;;;1.30;;
37895;SDS011;23733;53.254;10.430;2022-08-21T13:46:01;3.77;;;1.33;;
37895;SDS011;23733;53.254;10.430;2022-08-21T13:48:33;3.03;;;1.30;;
37895;SDS011;23733;53.254;10.430;2022-08-21T13:51:00;3.83;;;1.50;;
37895;SDS011;23733;53.254;10.430;2022-08-21T13:53:30;2.87;;;1.10;;
37895;SDS011;23733;53.254;10.430;2022-08-21T13:55:58;3.23;;;1.30;;
37895;SDS011;23733;53.254;10.430;2022-08-21T13:58:26;2.73;;;1.40;;
37895;SDS011;23733;53.254;10.430;2022-08-21T14:01:24;4.40;;;1.47;;
37895;SDS011;23733;53.254;10.430;2022-08-21T14:03:54;4.27;;;1.30;;
37895;SDS011;23733;53.254;10.430;2022-08-21T14:06:25;2.47;;;1.20;;
37895;SDS011;23733;53.254;10.430;2022-08-21T14:09:07;4.30;;;1.27;;
37895;SDS011;23733;53.254;10.430;2022-08-21T14:11:38;3.23;;;1.47;;
37895;SDS011;23733;53.254;10.430;2022-08-21T14:14:12;2.50;;;1.30;;
37895;SDS011;23733;53.254;10.430;2022-08-21T14:16:53;2.53;;;1.20;;
37895;SDS011;23733;53.254;10.430;2022-08-21T14:19:24;4.83;;;1.50;;
37895;SDS011;23733;53.254;10.430;2022-08-21T14:21:52;2.87;;;1.30;;
37895;SDS011;23733;53.254;10.430;2022-08-21T14:26:53;3.83;;;1.30;;
37895;SDS011;23733;53.254;10.430;2022-08-21T14:29:33;3.70;;;1.50;;
37895;SDS011;23733;53.254;10.430;2022-08-21T14:32:14;2.33;;;1.20;;
37895;SDS011;23733;53.254;10.430;2022-08-21T14:34:48;5.97;;;1.30;;
37895;SDS011;23733;53.254;10.430;2022-08-21T14:37:14;4.83;;;1.50;;
37895;SDS011;23733;53.254;10.430;2022-08-21T14:39:40;3.95;;;1.30;;
37895;SDS011;23733;53.254;10.430;2022-08-21T14:42:06;4.37;;;1.30;;
37895;SDS011;23733;53.254;10.430;2022-08-21T14:44:32;4.73;;;1.50;;
37895;SDS011;23733;53.254;10.430;2022-08-21T14:46:59;4.60;;;1.67;;
37895;SDS011;23733;53.254;10.430;2022-08-21T14:49:25;2.80;;;1.47;;
37895;SDS011;23733;53.254;10.430;2022-08-21T14:51:53;3.50;;;1.20;;
37895;SDS011;23733;53.254;10.430;2022-08-21T14:54:28;5.77;;;1.40;;
37895;SDS011;23733;53.254;10.430;2022-08-21T14:56:56;3.70;;;1.43;;
37895;SDS011;23733;53.254;10.430;2022-08-21T14:59:28;3.53;;;1.50;;
37895;SDS011;23733;53.254;10.430;2022-08-21T15:01:55;2.53;;;1.50;;
37895;SDS011;23733;53.254;10.430;2022-08-21T15:04:21;3.00;;;1.48;;
37895;SDS011;23733;53.254;10.430;2022-08-21T15:06:47;4.83;;;1.63;;
37895;SDS011;23733;53.254;10.430;2022-08-21T15:09:13;2.20;;;1.30;;
37895;SDS011;23733;53.254;10.430;2022-08-21T15:11:39;3.60;;;1.40;;
37895;SDS011;23733;53.254;10.430;2022-08-21T15:14:06;3.87;;;1.30;;
37895;SDS011;23733;53.254;10.430;2022-08-21T15:16:36;2.27;;;1.43;;
37895;SDS011;23733;53.254;10.430;2022-08-21T15:19:02;2.63;;;1.37;;
37895;SDS011;23733;53.254;10.430;2022-08-21T15:21:28;2.50;;;1.33;;
37895;SDS011;23733;53.254;10.430;2022-08-21T15:23:54;6.67;;;1.50;;
37895;SDS011;23733;53.254;10.430;2022-08-21T15:26:21;6.50;;;1.33;;
37895;SDS011;23733;53.254;10.430;2022-08-21T15:28:48;3.50;;;1.53;;
37895;SDS011;23733;53.254;10.430;2022-08-21T15:31:14;6.23;;;1.50;;
37895;SDS011;23733;53.254;10.430;2022-08-21T15:33:40;5.03;;;1.50;;
37895;SDS011;23733;53.254;10.430;2022-08-21T15:36:07;3.63;;;1.20;;
37895;SDS011;23733;53.254;10.430;2022-08-21T15:38:33;2.30;;;1.33;;
37895;SDS011;23733;53.254;10.430;2022-08-21T15:40:59;5.83;;;1.70;;
37895;SDS011;23733;53.254;10.430;2022-08-21T15:43:27;3.97;;;1.43;;